createdAt,value
2018-11-01T00:01:35.329Z,7.43
2018-11-01T00:04:05.051Z,8.90
2018-11-01T00:06:33.730Z,8.20
2018-11-01T00:09:02.498Z,8.33
2018-11-01T00:11:31.165Z,8.83
2018-11-01T00:13:59.890Z,7.37
2018-11-01T00:16:28.517Z,9.53
2018-11-01T00:18:57.160Z,7.07
2018-11-01T00:21:25.891Z,9.23
2018-11-01T00:23:54.483Z,9.10
2018-11-01T00:26:23.187Z,13.10
2018-11-01T00:28:51.856Z,11.10
2018-11-01T00:31:20.528Z,7.50
2018-11-01T00:33:49.125Z,9.10
2018-11-01T00:36:17.817Z,9.27
2018-11-01T00:38:46.427Z,6.77
2018-11-01T00:41:15.902Z,11.07
2018-11-01T00:43:44.553Z,9.70
2018-11-01T00:46:13.173Z,7.95
2018-11-01T00:48:42.120Z,10.20
2018-11-01T00:51:10.810Z,13.27
2018-11-01T00:53:39.475Z,11.15
2018-11-01T00:56:08.126Z,10.50
2018-11-01T00:58:36.801Z,12.13
2018-11-01T01:01:05.600Z,6.43
2018-11-01T01:03:34.260Z,9.90
2018-11-01T01:06:02.940Z,7.33
2018-11-01T01:08:31.612Z,9.20
2018-11-01T01:11:00.243Z,7.90
2018-11-01T01:13:28.917Z,12.13
2018-11-01T01:15:57.574Z,8.23
2018-11-01T01:18:26.817Z,12.47
2018-11-01T01:20:55.499Z,8.80
2018-11-01T01:23:24.110Z,7.03
2018-11-01T01:25:52.907Z,7.58
2018-11-01T01:28:21.553Z,9.20
2018-11-01T01:30:50.181Z,8.58
2018-11-01T01:33:18.831Z,9.40
2018-11-01T01:35:47.495Z,9.40
2018-11-01T01:38:16.251Z,8.60
2018-11-01T01:40:45.695Z,9.80
2018-11-01T01:43:14.335Z,11.97
2018-11-01T01:45:43.154Z,8.10
2018-11-01T01:48:11.767Z,6.93
2018-11-01T01:50:41.414Z,12.23
2018-11-01T01:53:10.042Z,6.30
2018-11-01T01:55:38.663Z,9.45
2018-11-01T01:58:08.392Z,6.42
2018-11-01T02:00:37.000Z,8.28
2018-11-01T02:03:06.534Z,9.53
2018-11-01T02:05:36.118Z,8.90
2018-11-01T02:08:05.151Z,7.30
2018-11-01T02:10:33.850Z,7.05
2018-11-01T02:13:02.518Z,6.13
2018-11-01T02:15:31.149Z,6.35
2018-11-01T02:17:59.816Z,6.17
2018-11-01T02:20:28.496Z,10.48
2018-11-01T02:22:57.184Z,11.60
2018-11-01T02:25:25.874Z,7.62
2018-11-01T02:28:00.087Z,10.35
2018-11-01T02:30:28.750Z,7.17
2018-11-01T02:32:57.648Z,8.95
2018-11-01T02:35:26.332Z,10.35
2018-11-01T02:37:55.768Z,13.88
2018-11-01T02:40:24.436Z,7.00
2018-11-01T02:42:53.024Z,8.23
2018-11-01T02:45:21.666Z,7.70
2018-11-01T02:47:50.341Z,7.73
2018-11-01T02:50:19.618Z,9.90
2018-11-01T02:52:48.232Z,10.27
2018-11-01T02:55:16.859Z,8.18
2018-11-01T02:57:45.529Z,10.63
2018-11-01T03:00:15.457Z,11.13
2018-11-01T03:02:45.007Z,9.20
2018-11-01T03:05:14.182Z,7.42
2018-11-01T03:07:42.847Z,7.90
2018-11-01T03:10:13.334Z,7.05
2018-11-01T03:12:42.265Z,8.58
2018-11-01T03:15:12.116Z,9.90
2018-11-01T03:17:40.744Z,7.70
2018-11-01T03:20:10.380Z,8.63
2018-11-01T03:22:39.035Z,6.78
2018-11-01T03:25:08.228Z,14.13
2018-11-01T03:27:37.103Z,7.77
2018-11-01T03:30:06.317Z,11.43
2018-11-01T03:32:35.285Z,11.65
2018-11-01T03:35:03.993Z,9.90
2018-11-01T03:37:32.630Z,7.90
2018-11-01T03:40:01.242Z,7.97
2018-11-01T03:42:29.900Z,7.75
2018-11-01T03:44:59.970Z,5.57
2018-11-01T03:47:28.603Z,8.47
2018-11-01T03:49:57.228Z,8.18
2018-11-01T03:52:25.841Z,10.08
2018-11-01T03:54:54.593Z,15.05
2018-11-01T03:57:23.236Z,7.90
2018-11-01T03:59:51.846Z,8.40
2018-11-01T04:02:20.512Z,8.98
2018-11-01T04:04:49.213Z,13.53
2018-11-01T04:07:18.080Z,14.13
2018-11-01T04:09:46.718Z,12.82
2018-11-01T04:12:15.372Z,9.43
2018-11-01T04:14:44.027Z,9.93
2018-11-01T04:17:12.750Z,12.73
2018-11-01T04:19:41.341Z,7.80
2018-11-01T04:22:09.991Z,13.00
2018-11-01T04:24:38.606Z,11.45
2018-11-01T04:27:07.310Z,12.50
2018-11-01T04:29:36.494Z,16.37
2018-11-01T04:32:05.338Z,14.35
2018-11-01T04:34:34.102Z,12.28
2018-11-01T04:37:02.811Z,12.25
2018-11-01T04:39:31.579Z,11.73
2018-11-01T04:42:00.261Z,9.63
2018-11-01T04:44:28.949Z,10.63
2018-11-01T04:46:57.556Z,11.13
2018-11-01T04:49:26.504Z,13.50
2018-11-01T04:51:55.149Z,11.93
2018-11-01T04:54:23.828Z,9.55
2018-11-01T04:56:52.459Z,15.97
2018-11-01T04:59:21.170Z,13.70
2018-11-01T05:01:49.791Z,11.15
2018-11-01T05:04:18.764Z,9.68
2018-11-01T05:06:48.329Z,9.08
2018-11-01T05:09:17.342Z,12.90
2018-11-01T05:11:46.304Z,10.33
2018-11-01T05:14:14.961Z,10.53
2018-11-01T05:16:44.292Z,18.23
2018-11-01T05:19:12.901Z,23.05
2018-11-01T05:21:42.526Z,20.85
2018-11-01T05:24:11.846Z,9.48
2018-11-01T05:26:40.474Z,11.60
2018-11-01T05:29:09.113Z,11.03
2018-11-01T05:31:37.738Z,13.87
2018-11-01T05:34:06.376Z,11.48
2018-11-01T05:36:35.111Z,16.30
2018-11-01T05:39:05.048Z,10.28
2018-11-01T05:41:33.759Z,10.28
2018-11-01T05:44:02.700Z,9.90
2018-11-01T05:46:31.342Z,12.13
2018-11-01T05:49:01.543Z,7.72
2018-11-01T05:51:30.184Z,8.75
2018-11-01T05:53:59.413Z,7.67
2018-11-01T05:56:28.164Z,7.45
2018-11-01T05:58:56.790Z,9.68
2018-11-01T06:01:32.021Z,8.50
2018-11-01T06:04:00.936Z,6.65
2018-11-01T06:06:30.521Z,6.15
2018-11-01T06:08:59.923Z,7.60
2018-11-01T06:11:28.548Z,10.58
2018-11-01T06:13:57.277Z,8.90
2018-11-01T06:16:25.902Z,10.03
2018-11-01T06:18:54.501Z,8.30
2018-11-01T06:21:23.130Z,7.20
2018-11-01T06:23:51.780Z,8.10
2018-11-01T06:26:20.421Z,8.68
2018-11-01T06:28:49.060Z,7.90
2018-11-01T06:31:17.626Z,8.25
2018-11-01T06:33:46.256Z,10.20
2018-11-01T06:36:15.351Z,8.75
2018-11-01T06:38:44.080Z,8.50
2018-11-01T06:41:12.697Z,9.17
2018-11-01T06:43:41.352Z,8.13
2018-11-01T06:46:09.962Z,7.17
2018-11-01T06:48:38.579Z,9.33
2018-11-01T06:51:07.300Z,6.83
2018-11-01T06:53:35.907Z,11.30
2018-11-01T06:56:04.728Z,7.60
2018-11-01T06:58:34.657Z,7.70
2018-11-01T07:01:03.215Z,6.70
2018-11-01T07:03:31.836Z,6.60
2018-11-01T07:06:00.837Z,5.97
2018-11-01T07:08:29.492Z,7.83
2018-11-01T07:10:58.200Z,9.40
2018-11-01T07:13:26.975Z,6.37
2018-11-01T07:15:55.580Z,10.20
2018-11-01T07:18:24.287Z,8.70
2018-11-01T07:20:52.931Z,9.40
2018-11-01T07:23:21.568Z,9.57
2018-11-01T07:25:50.791Z,7.00
2018-11-01T07:28:20.147Z,10.40
2018-11-01T07:30:48.777Z,8.50
2018-11-01T07:33:17.488Z,6.63
2018-11-01T07:35:46.121Z,7.60
2018-11-01T07:38:14.729Z,7.80
2018-11-01T07:40:43.435Z,9.83
2018-11-01T07:43:12.259Z,9.27
2018-11-01T07:45:40.919Z,7.90
2018-11-01T07:48:09.516Z,6.50
2018-11-01T07:50:38.190Z,4.23
2018-11-01T07:53:06.831Z,10.50
2018-11-01T07:55:36.443Z,8.87
2018-11-01T07:58:05.432Z,8.07
2018-11-01T08:00:34.085Z,4.90
2018-11-01T08:03:02.689Z,4.87
2018-11-01T08:05:31.381Z,5.60
2018-11-01T08:07:59.993Z,10.47
2018-11-01T08:10:28.685Z,7.90
2018-11-01T08:12:58.296Z,5.70
2018-11-01T08:15:26.997Z,7.67
2018-11-01T08:17:56.596Z,5.60
2018-11-01T08:20:25.264Z,7.00
2018-11-01T08:22:53.889Z,12.17
2018-11-01T08:25:22.495Z,6.33
2018-11-01T08:27:51.266Z,5.20
2018-11-01T08:30:19.921Z,6.57
2018-11-01T08:32:49.620Z,6.07
2018-11-01T08:35:18.287Z,7.20
2018-11-01T08:37:46.992Z,6.73
2018-11-01T08:40:15.693Z,5.30
2018-11-01T08:42:44.386Z,6.40
2018-11-01T08:45:14.212Z,7.20
2018-11-01T08:47:49.437Z,9.77
2018-11-01T08:50:18.876Z,5.10
2018-11-01T08:52:47.579Z,6.70
2018-11-01T08:55:16.241Z,6.40
2018-11-01T08:57:45.624Z,8.80
2018-11-01T09:00:14.611Z,7.77
2018-11-01T09:02:43.634Z,8.13
2018-11-01T09:05:13.025Z,5.47
2018-11-01T09:07:41.898Z,4.83
2018-11-01T09:10:12.794Z,7.40
2018-11-01T09:12:41.650Z,6.97
2018-11-01T09:15:11.892Z,9.23
2018-11-01T09:17:40.972Z,6.30
2018-11-01T09:20:10.899Z,5.83
2018-11-01T09:22:40.303Z,9.03
2018-11-01T09:25:08.952Z,5.33
2018-11-01T09:27:37.661Z,5.57
2018-11-01T09:30:08.792Z,5.87
2018-11-01T09:32:37.629Z,5.77
2018-11-01T09:35:06.615Z,10.47
2018-11-01T09:37:35.261Z,7.13
2018-11-01T09:40:04.808Z,10.63
2018-11-01T09:42:33.400Z,9.93
2018-11-01T09:45:02.039Z,7.90
2018-11-01T09:47:31.424Z,9.03
2018-11-01T09:49:59.772Z,6.20
2018-11-01T09:52:28.457Z,8.43
2018-11-01T09:54:57.144Z,8.40
2018-11-01T09:57:25.916Z,7.50
2018-11-01T09:59:54.610Z,7.80
2018-11-01T10:02:23.248Z,8.83
2018-11-01T10:04:51.856Z,7.30
2018-11-01T10:07:20.457Z,7.93
2018-11-01T10:09:49.157Z,11.47
2018-11-01T10:12:17.823Z,7.30
2018-11-01T10:14:46.514Z,8.87
2018-11-01T10:17:15.408Z,10.77
2018-11-01T10:19:43.942Z,6.77
2018-11-01T10:22:12.641Z,7.87
2018-11-01T10:24:41.276Z,9.00
2018-11-01T10:27:19.512Z,7.27
2018-11-01T10:29:38.608Z,9.33
2018-11-01T10:32:07.320Z,6.53
2018-11-01T10:34:36.011Z,7.47
2018-11-01T10:37:04.713Z,9.43
2018-11-01T10:39:33.353Z,11.77
2018-11-01T10:42:02.029Z,7.03
2018-11-01T10:44:30.665Z,5.97
2018-11-01T10:46:59.374Z,5.53
2018-11-01T10:49:29.024Z,7.20
2018-11-01T10:51:58.754Z,9.23
2018-11-01T10:54:27.509Z,6.93
2018-11-01T10:56:56.108Z,7.93
2018-11-01T10:59:24.764Z,8.67
2018-11-01T11:01:58.887Z,5.80
2018-11-01T11:04:27.860Z,5.63
2018-11-01T11:06:56.484Z,7.33
2018-11-01T11:09:25.448Z,7.30
2018-11-01T11:11:54.109Z,7.50
2018-11-01T11:14:22.788Z,5.90
2018-11-01T11:16:51.467Z,8.10
2018-11-01T11:19:20.106Z,7.07
2018-11-01T11:21:48.759Z,7.30
2018-11-01T11:24:17.454Z,8.97
2018-11-01T11:26:46.092Z,10.70
2018-11-01T11:29:14.716Z,8.83
2018-11-01T11:31:43.782Z,7.17
2018-11-01T11:34:12.482Z,6.77
2018-11-01T11:36:41.135Z,12.90
2018-11-01T11:39:12.138Z,7.90
2018-11-01T11:41:41.285Z,7.07
2018-11-01T11:44:10.974Z,9.43
2018-11-01T11:46:40.403Z,10.07
2018-11-01T11:49:09.069Z,7.87
2018-11-01T11:51:37.940Z,9.80
2018-11-01T11:54:07.000Z,12.07
2018-11-01T11:56:35.861Z,10.30
2018-11-01T11:59:05.335Z,9.80
2018-11-01T12:01:34.551Z,7.43
2018-11-01T12:04:03.363Z,10.53
2018-11-01T12:06:32.012Z,10.43
2018-11-01T12:09:00.644Z,13.50
2018-11-01T12:11:30.500Z,13.40
2018-11-01T12:13:59.975Z,9.47
2018-11-01T12:16:28.607Z,23.17
2018-11-01T12:18:57.283Z,11.87
2018-11-01T12:21:25.956Z,8.73
2018-11-01T12:23:54.760Z,12.20
2018-11-01T12:26:23.400Z,12.40
2018-11-01T12:28:52.104Z,11.70
2018-11-01T12:31:20.704Z,11.90
2018-11-01T12:33:49.347Z,9.40
2018-11-01T12:36:17.997Z,10.37
2018-11-01T12:38:46.634Z,10.17
2018-11-01T12:41:15.273Z,11.77
2018-11-01T12:43:43.945Z,11.97
2018-11-01T12:46:13.585Z,8.10
2018-11-01T12:48:42.884Z,9.03
2018-11-01T12:51:11.511Z,13.83
2018-11-01T12:53:40.261Z,17.97
2018-11-01T12:56:08.974Z,10.13
2018-11-01T12:58:37.624Z,10.13
2018-11-01T13:01:06.615Z,9.00
2018-11-01T13:03:35.283Z,7.07
2018-11-01T13:06:04.009Z,11.90
2018-11-01T13:08:32.704Z,20.83
2018-11-01T13:11:01.312Z,8.97
2018-11-01T13:13:30.344Z,14.63
2018-11-01T13:15:59.005Z,10.50
2018-11-01T13:18:27.703Z,14.30
2018-11-01T13:20:56.391Z,16.37
2018-11-01T13:23:25.071Z,9.83
2018-11-01T13:25:53.803Z,10.73
2018-11-01T13:28:22.474Z,9.23
2018-11-01T13:30:51.167Z,14.00
2018-11-01T13:33:19.776Z,15.13
2018-11-01T13:35:48.784Z,15.17
2018-11-01T13:38:17.981Z,8.17
2018-11-01T13:40:48.349Z,10.33
2018-11-01T13:43:16.571Z,9.43
2018-11-01T13:45:45.229Z,14.67
2018-11-01T13:48:14.054Z,10.00
2018-11-01T13:50:42.601Z,9.73
2018-11-01T13:53:11.247Z,15.27
2018-11-01T13:55:40.849Z,16.63
2018-11-01T13:58:09.536Z,9.97
2018-11-01T14:00:38.171Z,10.90
2018-11-01T14:03:06.816Z,14.53
2018-11-01T14:05:35.503Z,15.80
2018-11-01T14:08:04.195Z,15.50
2018-11-01T14:10:32.839Z,10.97
2018-11-01T14:13:01.613Z,8.47
2018-11-01T14:15:30.329Z,10.30
2018-11-01T14:17:59.031Z,10.93
2018-11-01T14:20:27.716Z,17.00
2018-11-01T14:22:56.451Z,10.47
2018-11-01T14:25:25.162Z,14.70
2018-11-01T14:27:53.832Z,9.53
2018-11-01T14:30:22.507Z,9.67
2018-11-01T14:32:51.160Z,9.60
2018-11-01T14:35:19.852Z,10.93
2018-11-01T14:37:48.575Z,8.57
2018-11-01T14:40:17.631Z,11.17
2018-11-01T14:42:46.328Z,10.53
2018-11-01T14:45:14.988Z,10.43
2018-11-01T14:47:43.856Z,10.10
2018-11-01T14:50:12.403Z,21.53
2018-11-01T14:52:41.357Z,7.13
2018-11-01T14:55:11.083Z,16.20
2018-11-01T14:57:40.224Z,10.17
2018-11-01T15:00:08.504Z,9.60
2018-11-01T15:02:37.191Z,17.77
2018-11-01T15:05:06.537Z,11.63
2018-11-01T15:07:35.282Z,9.77
2018-11-01T15:10:04.651Z,11.50
2018-11-01T15:12:33.249Z,15.57
2018-11-01T15:15:02.264Z,11.43
2018-11-01T15:17:30.932Z,13.73
2018-11-01T15:20:00.171Z,12.60
2018-11-01T15:22:28.832Z,13.57
2018-11-01T15:24:57.547Z,13.37
2018-11-01T15:27:26.227Z,16.37
2018-11-01T15:29:55.010Z,16.80
2018-11-01T15:32:27.431Z,14.83
2018-11-01T15:34:57.792Z,15.17
2018-11-01T15:37:26.836Z,9.40
2018-11-01T15:39:55.720Z,11.20
2018-11-01T15:42:24.400Z,16.77
2018-11-01T15:44:53.104Z,14.60
2018-11-01T15:47:21.730Z,13.97
2018-11-01T15:49:50.760Z,17.50
2018-11-01T15:52:19.464Z,14.10
2018-11-01T15:54:48.135Z,15.53
2018-11-01T15:57:16.777Z,16.73
2018-11-01T15:59:45.820Z,15.33
2018-11-01T16:02:14.411Z,13.23
2018-11-01T16:04:43.140Z,15.80
2018-11-01T16:07:12.229Z,16.80
2018-11-01T16:09:40.912Z,12.97
2018-11-01T16:12:10.589Z,12.53
2018-11-01T16:14:39.252Z,14.67
2018-11-01T16:17:07.979Z,18.37
2018-11-01T16:19:36.685Z,18.60
2018-11-01T16:22:05.302Z,15.77
2018-11-01T16:24:34.001Z,18.13
2018-11-01T16:27:02.687Z,15.23
2018-11-01T16:29:31.469Z,21.47
2018-11-01T16:32:00.135Z,15.03
2018-11-01T16:34:28.856Z,19.40
2018-11-01T16:36:57.562Z,12.90
2018-11-01T16:39:26.119Z,23.80
2018-11-01T16:41:54.916Z,19.33
2018-11-01T16:44:23.504Z,22.10
2018-11-01T16:46:52.165Z,29.37
2018-11-01T16:49:20.822Z,20.23
2018-11-01T16:51:49.480Z,16.70
2018-11-01T16:54:18.135Z,29.83
2018-11-01T16:56:46.806Z,20.70
2018-11-01T16:59:15.463Z,16.23
2018-11-01T17:01:44.096Z,27.33
2018-11-01T17:04:12.896Z,19.33
2018-11-01T17:06:41.616Z,20.03
2018-11-01T17:09:11.419Z,15.17
2018-11-01T17:11:40.323Z,19.90
2018-11-01T17:14:09.002Z,21.57
2018-11-01T17:16:37.904Z,14.77
2018-11-01T17:19:07.497Z,21.87
2018-11-01T17:21:36.275Z,21.80
2018-11-01T17:24:05.034Z,21.53
2018-11-01T17:26:33.687Z,15.17
2018-11-01T17:29:02.439Z,16.20
2018-11-01T17:31:31.096Z,23.33
2018-11-01T17:33:59.981Z,17.30
2018-11-01T17:36:28.664Z,20.33
2018-11-01T17:38:57.360Z,17.40
2018-11-01T17:41:25.998Z,18.17
2018-11-01T17:43:54.716Z,20.10
2018-11-01T17:46:23.401Z,25.77
2018-11-01T17:48:52.489Z,21.07
2018-11-01T17:51:21.544Z,17.03
2018-11-01T17:53:50.176Z,16.23
2018-11-01T17:56:18.816Z,14.60
2018-11-01T17:58:47.483Z,24.57
2018-11-01T18:01:16.150Z,20.57
2018-11-01T18:03:44.832Z,22.37
2018-11-01T18:06:13.558Z,17.63
2018-11-01T18:08:42.236Z,19.77
2018-11-01T18:11:10.930Z,26.63
2018-11-01T18:13:39.588Z,26.07
2018-11-01T18:16:08.231Z,19.57
2018-11-01T18:18:36.908Z,20.77
2018-11-01T18:21:05.685Z,19.40
2018-11-01T18:23:34.418Z,18.13
2018-11-01T18:26:03.111Z,19.03
2018-11-01T18:28:31.797Z,20.60
2018-11-01T18:31:01.057Z,24.33
2018-11-01T18:33:29.706Z,18.00
2018-11-01T18:35:58.400Z,19.17
2018-11-01T18:38:27.124Z,21.90
2018-11-01T18:40:55.837Z,22.93
2018-11-01T18:43:24.537Z,23.40
2018-11-01T18:45:54.060Z,21.43
2018-11-01T18:48:22.713Z,14.53
2018-11-01T18:50:51.402Z,16.50
2018-11-01T18:53:20.212Z,18.83
2018-11-01T18:55:48.986Z,24.47
2018-11-01T18:58:17.628Z,23.13
2018-11-01T19:00:46.471Z,26.70
2018-11-01T19:03:15.165Z,19.97
2018-11-01T19:05:43.858Z,26.57
2018-11-01T19:08:12.529Z,20.07
2018-11-01T19:10:41.556Z,17.70
2018-11-01T19:13:10.195Z,22.03
2018-11-01T19:15:38.980Z,20.60
2018-11-01T19:18:07.615Z,24.97
2018-11-01T19:20:36.667Z,19.00
2018-11-01T19:23:05.686Z,20.17
2018-11-01T19:25:34.342Z,25.03
2018-11-01T19:28:03.201Z,20.67
2018-11-01T19:30:31.799Z,26.30
2018-11-01T19:33:00.731Z,22.40
2018-11-01T19:35:29.700Z,26.07
2018-11-01T19:37:58.491Z,22.67
2018-11-01T19:40:27.315Z,20.63
2018-11-01T19:42:55.985Z,25.00
2018-11-01T19:45:24.676Z,30.33
2018-11-01T19:47:53.416Z,21.40
2018-11-01T19:50:22.161Z,19.70
2018-11-01T19:52:50.891Z,15.57
2018-11-01T19:55:19.659Z,23.90
2018-11-01T19:57:48.454Z,25.43
2018-11-01T20:00:17.583Z,26.73
2018-11-01T20:02:47.198Z,22.83
2018-11-01T20:05:16.344Z,21.53
2018-11-01T20:07:45.056Z,20.90
2018-11-01T20:10:14.765Z,29.60
2018-11-01T20:12:43.875Z,25.30
2018-11-01T20:15:13.612Z,22.87
2018-11-01T20:17:42.332Z,21.00
2018-11-01T20:20:12.206Z,23.90
2018-11-01T20:22:41.643Z,22.43
2018-11-01T20:25:10.364Z,33.97
2018-11-01T20:27:40.085Z,21.00
2018-11-01T20:30:12.451Z,20.90
2018-11-01T20:32:41.931Z,20.97
2018-11-01T20:35:12.181Z,17.53
2018-11-01T20:37:41.461Z,23.10
2018-11-01T20:40:10.446Z,20.27
2018-11-01T20:42:39.653Z,21.20
2018-11-01T20:45:09.594Z,21.17
2018-11-01T20:47:39.128Z,20.17
2018-11-01T20:50:09.318Z,18.73
2018-11-01T20:52:37.989Z,17.40
2018-11-01T20:55:06.820Z,33.57
2018-11-01T20:57:35.532Z,17.60
2018-11-01T21:00:05.533Z,24.80
2018-11-01T21:02:34.192Z,17.17
2018-11-01T21:05:02.937Z,21.60
2018-11-01T21:07:31.585Z,21.87
2018-11-01T21:10:00.421Z,23.23
2018-11-01T21:12:29.067Z,25.97
2018-11-01T21:14:57.757Z,20.53
2018-11-01T21:17:26.430Z,22.33
2018-11-01T21:19:55.122Z,22.60
2018-11-01T21:22:23.839Z,21.03
2018-11-01T21:24:52.525Z,23.60
2018-11-01T21:27:21.243Z,18.47
2018-11-01T21:29:49.961Z,23.03
2018-11-01T21:32:18.648Z,16.27
2018-11-01T21:34:47.376Z,19.30
2018-11-01T21:37:16.058Z,26.13
2018-11-01T21:39:44.691Z,20.13
2018-11-01T21:42:13.415Z,19.87
2018-11-01T21:44:42.124Z,19.17
2018-11-01T21:47:11.439Z,24.13
2018-11-01T21:49:40.119Z,19.40
2018-11-01T21:52:08.779Z,14.90
2018-11-01T21:54:37.396Z,22.97
2018-11-01T21:57:06.373Z,22.83
2018-11-01T21:59:35.060Z,21.50
2018-11-01T22:02:03.723Z,19.43
2018-11-01T22:04:32.379Z,18.53
2018-11-01T22:07:01.084Z,21.57
2018-11-01T22:09:29.736Z,23.93
2018-11-01T22:12:10.488Z,19.53
2018-11-01T22:14:55.889Z,20.07
2018-11-01T22:20:26.929Z,19.40
2018-11-01T22:23:12.954Z,19.63
2018-11-01T22:25:58.995Z,21.23
2018-11-01T22:28:40.667Z,20.83
2018-11-01T22:31:24.283Z,26.90
2018-11-01T22:34:02.945Z,20.07
2018-11-01T22:39:49.116Z,21.20
2018-11-01T22:42:27.825Z,23.10
2018-11-01T22:45:05.070Z,26.83
2018-11-01T22:47:46.114Z,20.67
2018-11-01T22:50:25.709Z,20.40
2018-11-01T22:53:06.759Z,21.03
2018-11-01T22:55:54.458Z,22.60
2018-11-01T22:58:35.633Z,22.40
2018-11-01T23:01:13.317Z,26.50
2018-11-01T23:03:54.439Z,27.17
2018-11-01T23:06:28.257Z,24.37
2018-11-01T23:09:14.683Z,18.20
2018-11-01T23:11:55.090Z,20.60
2018-11-01T23:14:33.669Z,24.60
2018-11-01T23:17:04.893Z,23.30
2018-11-01T23:19:42.298Z,22.33
2018-11-01T23:22:18.187Z,24.80
2018-11-01T23:24:49.440Z,27.57
2018-11-01T23:30:04.946Z,24.80
2018-11-01T23:32:39.945Z,20.80
2018-11-01T23:35:15.378Z,29.90
2018-11-01T23:37:51.458Z,21.70
2018-11-01T23:40:27.120Z,20.17
2018-11-01T23:43:03.554Z,19.70
2018-11-01T23:45:38.832Z,19.40
2018-11-01T23:48:10.934Z,20.77
2018-11-01T23:50:54.070Z,22.27
2018-11-01T23:53:34.548Z,20.93
2018-11-01T23:56:03.997Z,17.00
2018-11-01T23:58:35.519Z,22.13
